Time;durP1;ratioP1;P1;durP2;ratioP2;P2;SDS_P1;SDS_P2;PMS_P1;PMS_P2;Temp;Humidity;BMP_temperature;BMP_pressure;BME280_temperature;BME280_humidity;BME280_pressure;Samples;Min_cycle;Max_cycle;Signal;HPM_P1;HPM_P2
2023/10/17 00:28:46;;;;;;;3.30;2.50;;;;;;;5.02;66.63;99221.91;5133170;27;43200;-76
2023/10/17 00:31:16;;;;;;;4.67;3.33;;;;;;;4.99;66.56;99215.00;5117051;27;41730;-77
2023/10/17 00:33:48;;;;;;;2.93;2.63;;;;;;;5.02;66.17;99219.28;5151603;27;41258;-77
2023/10/17 00:36:16;;;;;;;3.47;2.60;;;;;;;5.03;66.18;99223.63;5131286;27;40977;-76
2023/10/17 00:38:45;;;;;;;4.63;2.73;;;;;;;5.03;67.05;99214.00;5133865;27;41655;-77
2023/10/17 00:41:19;;;;;;;3.80;2.93;;;;;;;4.98;66.79;99202.78;5116528;27;43188;-77
2023/10/17 00:43:47;;;;;;;4.40;2.60;;;;;;;5.00;66.53;99197.47;5132418;27;40989;-77
2023/10/17 00:46:16;;;;;;;3.00;2.70;;;;;;;4.93;66.47;99182.88;5134317;27;40047;-76
2023/10/17 00:48:47;;;;;;;3.33;3.03;;;;;;;4.99;66.28;99203.63;5115651;27;41732;-77
2023/10/17 00:51:19;;;;;;;3.80;2.83;;;;;;;4.95;65.88;99213.38;5133217;27;42862;-77
2023/10/17 00:53:47;;;;;;;3.60;3.03;;;;;;;4.90;65.89;99206.59;5149724;27;42287;-76
2023/10/17 00:56:15;;;;;;;2.80;2.60;;;;;;;4.87;65.97;99207.53;5115650;27;39905;-77
2023/10/17 00:58:43;;;;;;;3.73;2.63;;;;;;;4.83;65.92;99205.91;5115501;27;40803;-77
2023/10/17 01:01:15;;;;;;;2.60;2.30;;;;;;;4.81;66.04;99210.38;5150151;27;43517;-77
2023/10/17 01:03:43;;;;;;;5.17;3.20;;;;;;;4.77;65.98;99202.66;5132502;27;42602;-76
2023/10/17 01:06:23;;;;;;;4.80;3.30;;;;;;;4.75;66.50;99189.59;5132594;27;39916;-76
2023/10/17 01:08:51;;;;;;;2.53;2.33;;;;;;;4.76;66.64;99182.59;5149980;27;41540;-77
2023/10/17 01:11:26;;;;;;;4.87;3.17;;;;;;;4.74;66.77;99187.00;5132293;27;43536;-77
2023/10/17 01:13:53;;;;;;;4.30;3.13;;;;;;;4.72;66.47;99194.06;5133416;27;41417;-76
2023/10/17 01:16:24;;;;;;;3.07;2.70;;;;;;;4.70;66.34;99202.00;5134977;27;40047;-76
2023/10/17 01:18:54;;;;;;;3.17;2.57;;;;;;;4.67;66.26;99205.59;5150321;27;42736;-77
2023/10/17 01:21:21;;;;;;;4.00;2.90;;;;;;;4.64;66.84;99200.44;5133464;27;44243;-76
2023/10/17 01:23:50;;;;;;;3.83;2.87;;;;;;;4.61;68.18;99197.91;5133216;27;41538;-76
2023/10/17 01:26:23;;;;;;;4.13;3.43;;;;;;;4.59;68.10;99183.13;5132014;27;38756;-76
2023/10/17 01:28:52;;;;;;;4.47;2.73;;;;;;;4.55;68.61;99177.16;5131379;27;41823;-76
2023/10/17 01:31:24;;;;;;;4.17;3.70;;;;;;;4.51;68.50;99172.91;5132385;27;43571;-76
2023/10/17 01:33:54;;;;;;;5.40;3.00;;;;;;;4.48;68.36;99180.88;5132836;27;42556;-76
2023/10/17 01:36:22;;;;;;;2.87;2.57;;;;;;;4.43;68.08;99177.56;5132423;27;38795;-76
2023/10/17 01:38:50;;;;;;;3.43;3.10;;;;;;;4.41;67.74;99179.38;5114774;27;40682;-76
2023/10/17 01:41:20;;;;;;;3.07;2.63;;;;;;;4.41;67.71;99181.13;5149563;27;42913;-77
2023/10/17 01:43:48;;;;;;;3.63;2.70;;;;;;;4.36;67.69;99186.50;5131935;27;41433;-76
2023/10/17 01:46:21;;;;;;;3.43;3.00;;;;;;;4.25;67.82;99179.00;5132106;27;39916;-76
2023/10/17 01:48:49;;;;;;;3.83;3.33;;;;;;;4.25;67.60;99183.38;5149498;27;42193;-76
2023/10/17 01:51:19;;;;;;;4.73;3.17;;;;;;;4.00;67.60;99153.59;5132001;27;42294;-76
2023/10/17 01:53:50;;;;;;;4.23;3.23;;;;;;;4.19;67.54;99200.19;5131761;27;42077;-77
2023/10/17 01:56:25;;;;;;;4.17;3.17;;;;;;;4.15;67.37;99197.69;5132288;27;38791;-76
2023/10/17 01:58:55;;;;;;;3.03;2.50;;;;;;;4.10;67.84;99191.72;5131853;27;40555;-76
2023/10/17 02:01:25;;;;;;;4.77;3.03;;;;;;;4.04;67.58;99187.53;5149223;27;43730;-76
2023/10/17 02:03:57;;;;;;;3.10;2.80;;;;;;;3.79;67.67;99158.59;5131539;27;42979;-77
2023/10/17 02:06:25;;;;;;;4.77;3.37;;;;;;;3.96;67.64;99187.75;5114574;27;38954;-77
2023/10/17 02:08:54;;;;;;;3.83;3.03;;;;;;;3.93;67.58;99187.00;5131344;27;40569;-77
2023/10/17 02:11:27;;;;;;;3.20;2.43;;;;;;;3.90;67.43;99193.19;5131582;27;43384;-76
2023/10/17 02:13:56;;;;;;;2.43;2.10;;;;;;;3.90;67.43;99192.34;5115490;27;41126;-77
2023/10/17 02:16:24;;;;;;;5.60;2.77;;;;;;;3.76;67.39;99163.94;5150189;27;40180;-76
2023/10/17 02:18:52;;;;;;;5.33;2.90;;;;;;;3.89;67.75;99191.47;5149617;27;41581;-76
2023/10/17 02:21:20;;;;;;;2.50;2.30;;;;;;;3.90;67.49;99187.97;5098756;27;41697;-76
2023/10/17 02:23:51;;;;;;;4.70;2.73;;;;;;;3.90;68.14;99187.97;5131392;27;41451;-76
2023/10/17 02:26:22;;;;;;;4.37;2.80;;;;;;;3.94;67.75;99189.59;5149782;27;39092;-76
2023/10/17 02:28:53;;;;;;;5.00;2.57;;;;;;;3.96;67.92;99198.22;5132787;27;41787;-76
2023/10/17 02:31:27;;;;;;;2.40;1.93;;;;;;;3.96;67.86;99193.00;5132469;27;41567;-76
2023/10/17 02:33:55;;;;;;;5.00;2.60;;;;;;;3.95;68.04;99193.06;5116127;27;42232;-76
2023/10/17 02:36:24;;;;;;;3.73;2.77;;;;;;;3.90;67.88;99190.56;5132548;27;39959;-76
2023/10/17 02:38:53;;;;;;;2.60;2.40;;;;;;;3.90;67.97;99192.34;5133275;27;41750;-76
2023/10/17 02:41:22;;;;;;;3.87;2.97;;;;;;;3.71;68.05;99165.81;5148960;27;43845;-76
2023/10/17 02:43:53;;;;;;;4.20;2.40;;;;;;;3.67;68.20;99147.66;5130791;27;42315;-76
2023/10/17 02:46:26;;;;;;;4.70;2.63;;;;;;;3.84;68.33;99187.25;5129413;27;40020;-76
2023/10/17 02:48:54;;;;;;;3.17;2.50;;;;;;;3.77;68.27;99189.22;5148141;27;41711;-76
2023/10/17 02:51:33;;;;;;;2.63;2.33;;;;;;;3.83;68.06;99196.06;5130978;27;42154;-76
2023/10/17 02:54:05;;;;;;;2.23;2.00;;;;;;;3.80;68.54;99191.75;5132681;27;42216;-77
2023/10/17 02:56:37;;;;;;;3.63;2.70;;;;;;;3.72;69.09;99172.78;5145205;27;39995;-76
2023/10/17 02:59:10;;;;;;;5.20;2.40;;;;;;;3.68;69.13;99175.56;5096940;27;41798;-77
2023/10/17 03:01:39;;;;;;;3.17;2.87;;;;;;;3.79;69.00;99190.03;5148296;27;41836;-76
2023/10/17 03:04:12;;;;;;;3.23;2.80;;;;;;;3.77;68.90;99201.47;5147842;27;42226;-76
2023/10/17 03:06:42;;;;;;;5.07;3.40;;;;;;;3.76;69.79;99190.13;5113640;27;39801;-77
2023/10/17 03:09:32;;;;;;;3.17;2.87;;;;;;;3.73;69.82;99179.72;5130384;27;42373;-77
2023/10/17 03:12:07;;;;;;;3.30;2.80;;;;;;;3.49;69.54;99143.78;5113658;27;41843;-76
2023/10/17 03:15:18;;;;;;;4.23;3.03;;;;;;;3.71;69.36;99178.91;5132009;27;41244;-76
2023/10/17 03:17:39;;;;;;;3.03;2.60;;;;;;;3.69;69.55;99178.13;5132750;27;39592;-76
2023/10/17 03:20:11;;;;;;;3.20;2.90;;;;;;;3.68;69.76;99175.56;5114519;27;42060;-76
2023/10/17 03:22:37;;;;;;;3.83;2.80;;;;;;;3.70;69.73;99174.59;5131385;27;42769;-76
2023/10/17 03:25:18;;;;;;;4.53;3.10;;;;;;;3.72;69.92;99178.00;5114307;27;42398;-76
2023/10/17 03:27:49;;;;;;;3.97;3.30;;;;;;;3.65;69.69;99166.00;5131163;27;38886;-76
2023/10/17 03:30:20;;;;;;;4.60;3.10;;;;;;;3.76;70.24;99174.41;5131552;27;41190;-76
2023/10/17 03:33:05;;;;;;;3.90;3.27;;;;;;;3.80;71.99;99167.31;5113805;27;42369;-76
2023/10/17 03:35:36;;;;;;;4.30;3.43;;;;;;;3.82;72.07;99166.38;5133575;27;42258;-76
2023/10/17 03:38:04;;;;;;;3.30;2.80;;;;;;;3.85;71.39;99174.13;5118178;27;39066;-76
2023/10/17 03:41:24;;;;;;;2.93;2.57;;;;;;;3.86;70.99;99185.47;5132763;27;43259;-76
2023/10/17 03:44:01;;;;;;;2.93;2.70;;;;;;;3.86;70.56;99194.19;5133731;27;41799;-77
2023/10/17 03:46:35;;;;;;;3.43;2.70;;;;;;;3.87;70.68;99198.53;5135167;27;43263;-76
2023/10/17 03:49:04;;;;;;;3.87;2.70;;;;;;;3.85;70.22;99189.84;5133760;27;38962;-76
2023/10/17 03:51:33;;;;;;;4.07;2.60;;;;;;;3.86;70.37;99191.56;5133928;27;41816;-76
2023/10/17 03:54:07;;;;;;;3.70;2.93;;;;;;;3.87;70.83;99181.94;5150951;27;42767;-76
2023/10/17 03:56:45;;;;;;;3.53;3.00;;;;;;;3.90;71.27;99160.91;5130737;27;43174;-76
2023/10/17 03:59:27;;;;;;;4.13;3.10;;;;;;;3.94;71.07;99160.75;5133821;27;40423;-77
2023/10/17 04:01:56;;;;;;;3.63;3.10;;;;;;;3.99;71.08;99165.84;5132717;27;42679;-76
2023/10/17 04:04:35;;;;;;;4.13;3.57;;;;;;;4.03;71.50;99162.22;5133671;27;41651;-76
2023/10/17 04:07:06;;;;;;;4.03;2.70;;;;;;;4.09;71.24;99161.16;5131736;27;43085;-77
2023/10/17 04:09:46;;;;;;;4.17;2.90;;;;;;;4.14;72.46;99140.94;5131706;27;39887;-77
2023/10/17 04:12:20;;;;;;;4.23;3.17;;;;;;;4.17;73.09;99127.72;5134065;27;40531;-76
2023/10/17 04:14:57;;;;;;;4.63;3.37;;;;;;;4.21;73.53;99140.66;5132553;27;43738;-76
2023/10/17 04:17:29;;;;;;;4.77;3.40;;;;;;;4.23;74.02;99138.00;5149378;27;42280;-77
2023/10/17 04:20:09;;;;;;;3.00;2.70;;;;;;;4.24;73.66;99140.56;5134522;27;40071;-76
2023/10/17 04:22:38;;;;;;;3.63;3.00;;;;;;;4.26;73.19;99149.25;5134244;27;41745;-76
2023/10/17 04:25:19;;;;;;;4.13;3.10;;;;;;;4.28;73.00;99152.69;5134178;27;42777;-76
2023/10/17 04:27:51;;;;;;;3.40;2.83;;;;;;;4.31;72.63;99157.84;5133381;27;42138;-76
2023/10/17 04:30:22;;;;;;;2.97;2.63;;;;;;;4.32;72.15;99149.06;5132486;27;40089;-76
2023/10/17 04:32:52;;;;;;;3.63;2.87;;;;;;;4.34;71.97;99146.38;5117695;27;42227;-76
2023/10/17 04:35:21;;;;;;;3.93;3.00;;;;;;;4.28;71.73;99133.47;5134161;27;43322;-76
2023/10/17 04:38:09;;;;;;;3.70;3.07;;;;;;;4.34;71.48;99138.50;5133931;27;42579;-76
2023/10/17 04:40:42;;;;;;;4.43;2.97;;;;;;;4.36;71.37;99141.94;5133521;27;39834;-75
2023/10/17 04:45:57;;;;;;;3.40;2.70;;;;;;;4.33;71.19;99139.41;5132221;27;43246;-76
2023/10/17 04:48:32;;;;;;;3.13;2.53;;;;;;;4.36;70.99;99144.56;5133142;27;42223;-76
2023/10/17 04:51:12;;;;;;;3.60;2.60;;;;;;;4.39;70.77;99148.84;5132945;27;40133;-76
2023/10/17 04:53:47;;;;;;;5.40;2.63;;;;;;;4.31;71.28;99136.00;5133096;27;41962;-76
2023/10/17 04:56:16;;;;;;;4.90;3.07;;;;;;;4.40;71.32;99151.44;5116693;27;41599;-76
2023/10/17 04:58:53;;;;;;;3.47;2.80;;;;;;;4.41;71.25;99157.53;5133854;27;42181;-76
2023/10/17 05:04:17;;;;;;;4.47;3.23;;;;;;;4.36;71.35;99128.81;5129893;27;41919;-76
2023/10/17 08:11:55;;;;;;;4.27;3.20;;;;;;;10.74;62.44;99245.91;6192437;22;1473152;-75
2023/10/17 08:14:32;;;;;;;5.37;3.13;;;;;;;10.85;60.80;99227.59;6254179;22;41680;-75
2023/10/17 08:17:00;;;;;;;3.73;2.47;;;;;;;11.49;60.20;99248.53;6255651;22;43539;-76
2023/10/17 08:19:35;;;;;;;3.73;3.03;;;;;;;12.27;58.35;99259.66;6253881;22;43201;-75
2023/10/17 08:22:10;;;;;;;3.80;3.00;;;;;;;12.68;57.05;99254.38;6256051;22;40825;-76
2023/10/17 08:24:44;;;;;;;2.50;2.20;;;;;;;12.78;56.24;99259.94;6228071;22;42586;-75
2023/10/17 08:27:19;;;;;;;4.17;3.10;;;;;;;12.76;54.77;99268.00;6253599;22;43270;-75
2023/10/17 08:29:49;;;;;;;6.30;3.87;;;;;;;12.83;54.84;99268.47;6254649;22;42880;-76
2023/10/17 08:35:10;;;;;;;6.23;2.80;;;;;;;12.93;54.10;99269.56;6253710;22;42738;-76
2023/10/17 08:37:43;;;;;;;3.97;2.70;;;;;;;12.96;54.44;99264.06;6254372;22;43599;-76
2023/10/17 08:42:56;;;;;;;3.00;2.20;;;;;;;13.27;53.45;99261.09;6227279;22;40704;-76
2023/10/17 08:45:26;;;;;;;3.97;2.73;;;;;;;13.44;53.18;99264.44;6254085;22;44435;-75
2023/10/17 08:47:59;;;;;;;3.30;2.77;;;;;;;13.47;52.31;99269.56;6250281;22;43091;-76
2023/10/17 08:50:27;;;;;;;3.37;2.50;;;;;;;13.49;51.89;99255.16;6245834;22;42701;-76
2023/10/17 08:52:56;;;;;;;3.03;2.20;;;;;;;13.51;51.01;99260.38;6247652;22;40012;-76
2023/10/17 08:55:24;;;;;;;2.93;2.40;;;;;;;13.58;52.40;99253.69;6220577;22;41869;-76
2023/10/17 08:57:52;;;;;;;3.07;2.20;;;;;;;13.65;51.45;99253.16;6247249;22;43787;-76
2023/10/17 09:00:26;;;;;;;1.90;1.80;;;;;;;13.76;51.36;99249.75;6220427;22;41203;-76
2023/10/17 09:03:00;;;;;;;2.80;2.37;;;;;;;13.86;51.29;99242.84;6247615;22;40010;-76
2023/10/17 09:05:27;;;;;;;2.73;2.50;;;;;;;13.91;51.10;99248.69;6221073;22;40958;-76
2023/10/17 09:07:57;;;;;;;3.03;2.03;;;;;;;14.01;50.47;99264.88;6220417;22;42085;-76
2023/10/17 09:10:36;;;;;;;2.70;2.03;;;;;;;14.08;50.64;99267.97;6220181;22;42335;-76
2023/10/17 09:15:55;;;;;;;3.07;2.23;;;;;;;14.23;49.46;99269.53;6231412;22;42252;-76
2023/10/17 09:18:27;;;;;;;2.27;2.07;;;;;;;14.17;49.56;99267.31;6246692;22;43297;-75
2023/10/17 09:20:55;;;;;;;3.00;2.23;;;;;;;14.19;49.80;99268.94;6246826;22;42656;-75
2023/10/17 09:23:24;;;;;;;2.60;2.20;;;;;;;14.17;49.10;99272.66;6248311;22;40226;-76
2023/10/17 09:25:55;;;;;;;2.93;2.43;;;;;;;14.21;48.92;99282.16;6247860;22;42150;-75
2023/10/17 09:28:24;;;;;;;2.53;1.57;;;;;;;14.28;49.53;99278.06;6247064;22;42570;-75
2023/10/17 09:31:03;;;;;;;2.53;2.10;;;;;;;14.31;48.65;99284.03;6246452;22;42416;-76
2023/10/17 09:33:31;;;;;;;4.27;2.13;;;;;;;14.28;48.72;99278.06;6221620;22;39758;-76
2023/10/17 09:36:02;;;;;;;2.67;1.77;;;;;;;14.38;49.70;99269.31;6221281;22;41944;-76
2023/10/17 09:38:31;;;;;;;3.87;2.73;;;;;;;14.47;48.99;99270.47;6246807;22;43003;-76
2023/10/17 09:40:59;;;;;;;2.73;2.30;;;;;;;14.54;48.71;99271.75;6245591;22;42315;-76
2023/10/17 09:43:27;;;;;;;2.40;2.20;;;;;;;14.50;48.43;99248.94;6219756;22;40971;-76
2023/10/17 09:46:02;;;;;;;4.23;2.30;;;;;;;14.67;48.22;99259.25;6245410;22;42023;-76
2023/10/17 09:48:35;;;;;;;3.40;2.67;;;;;;;14.81;48.63;99238.72;6220333;22;43029;-76
2023/10/17 09:51:04;;;;;;;2.60;2.30;;;;;;;14.88;47.29;99250.63;6220073;22;41808;-76
2023/10/17 09:53:33;;;;;;;3.47;2.20;;;;;;;14.90;47.09;99259.38;6245446;22;40852;-76
2023/10/17 09:56:06;;;;;;;2.83;1.83;;;;;;;15.01;47.16;99270.09;6245460;22;40814;-76
2023/10/17 09:58:37;;;;;;;2.30;1.87;;;;;;;15.18;46.37;99275.03;6245455;22;42472;-76
2023/10/17 10:01:13;;;;;;;2.17;1.97;;;;;;;15.32;46.31;99280.22;6219422;22;40937;-76
2023/10/17 10:03:43;;;;;;;2.43;2.20;;;;;;;15.25;45.66;99249.59;6245572;22;40101;-76
2023/10/17 10:06:22;;;;;;;2.00;1.73;;;;;;;15.34;45.81;99262.22;6245087;22;41154;-76
2023/10/17 10:08:54;;;;;;;1.90;1.80;;;;;;;15.40;45.17;99288.47;6245058;22;42836;-76
2023/10/17 10:11:21;;;;;;;2.20;1.83;;;;;;;15.41;45.74;99282.16;6246603;22;42600;-76
2023/10/17 10:14:08;;;;;;;2.20;1.70;;;;;;;15.42;45.80;99275.88;6246710;22;39255;-76
2023/10/17 10:16:49;;;;;;;2.43;1.83;;;;;;;15.44;44.96;99289.09;6246311;22;42197;-75
2023/10/17 10:19:18;;;;;;;2.53;1.93;;;;;;;15.39;45.29;99284.09;6221267;22;42891;-76
2023/10/17 10:21:54;;;;;;;4.00;1.90;;;;;;;15.48;45.29;99281.69;6245969;22;41133;-76
2023/10/17 10:24:26;;;;;;;2.10;1.57;;;;;;;15.58;45.14;99282.75;6221050;22;40146;-76
2023/10/17 10:27:24;;;;;;;2.10;1.70;;;;;;;15.71;45.09;99279.00;6220674;22;40761;-76
2023/10/17 10:29:53;;;;;;;2.03;1.77;;;;;;;15.74;44.30;99283.25;6246057;22;44657;-76
2023/10/17 10:32:32;;;;;;;3.47;1.80;;;;;;;15.69;43.44;99285.44;6246154;22;42071;-76
2023/10/17 10:35:03;;;;;;;2.70;2.00;;;;;;;15.61;44.99;99263.81;6246159;22;39938;-76
2023/10/17 10:37:32;;;;;;;4.07;2.07;;;;;;;15.63;44.89;99260.06;6247843;22;42425;-76
2023/10/17 10:40:11;;;;;;;2.53;1.97;;;;;;;15.62;45.34;99241.47;6245939;22;45022;-76
2023/10/17 10:42:43;;;;;;;2.43;1.93;;;;;;;15.63;45.00;99249.38;6220794;22;42232;-76
2023/10/17 10:45:35;;;;;;;5.50;2.10;;;;;;;15.61;44.35;99259.31;6218695;22;40299;-75
2023/10/17 10:48:07;;;;;;;3.17;1.80;;;;;;;15.47;44.37;99248.81;6246469;22;41139;-76
2023/10/17 10:50:40;;;;;;;4.17;1.73;;;;;;;15.50;44.41;99258.41;6245488;22;43195;-77
2023/10/17 10:53:23;;;;;;;2.80;1.90;;;;;;;15.44;44.67;99243.72;6245094;22;42764;-77
2023/10/17 10:55:55;;;;;;;3.23;1.80;;;;;;;15.43;44.36;99231.34;6246513;22;40048;-76
2023/10/17 10:58:24;;;;;;;2.30;2.10;;;;;;;15.40;44.89;99215.56;6245201;22;42119;-76
2023/10/17 11:00:54;;;;;;;3.87;2.20;;;;;;;15.38;44.76;99191.66;6219323;22;43050;-77
2023/10/17 11:03:23;;;;;;;3.87;1.90;;;;;;;15.38;44.66;99196.13;6244839;22;41852;-77
2023/10/17 11:06:08;;;;;;;3.27;1.63;;;;;;;15.34;44.21;99200.84;6246434;22;39755;-77
2023/10/17 11:08:37;;;;;;;2.30;1.80;;;;;;;15.36;44.73;99204.25;6245159;22;42239;-77
2023/10/17 11:11:05;;;;;;;3.77;2.20;;;;;;;15.38;44.90;99207.66;6219026;22;43594;-76
2023/10/17 11:13:34;;;;;;;2.60;1.80;;;;;;;15.38;44.10;99210.34;6220833;22;43016;-76
2023/10/17 11:16:01;;;;;;;1.77;1.33;;;;;;;15.38;44.01;99209.47;6246008;22;40053;-76
2023/10/17 11:18:29;;;;;;;2.30;1.70;;;;;;;15.34;44.57;99187.50;6247389;22;41937;-76
2023/10/17 11:20:58;;;;;;;3.07;1.70;;;;;;;15.37;44.14;99195.28;6220543;22;42836;-81
2023/10/17 11:23:27;;;;;;;1.90;1.60;;;;;;;15.40;43.35;99205.75;6220486;22;42484;-77
2023/10/17 11:25:57;;;;;;;2.20;2.00;;;;;;;15.40;44.06;99194.22;6221235;22;38907;-76
2023/10/17 11:28:24;;;;;;;1.97;1.70;;;;;;;15.38;43.48;99185.47;6220664;22;41498;-76
2023/10/17 11:30:52;;;;;;;2.23;1.87;;;;;;;15.43;43.59;99194.84;6219970;22;42175;-76
2023/10/17 11:33:28;;;;;;;2.87;1.80;;;;;;;15.23;43.80;99149.28;6220373;22;42403;-76
2023/10/17 11:36:03;;;;;;;2.17;1.53;;;;;;;15.36;43.68;99166.91;6243578;22;39620;-77
2023/10/17 11:38:37;;;;;;;1.77;1.63;;;;;;;15.42;42.92;99171.78;6244367;22;40846;-77
2023/10/17 11:41:06;;;;;;;3.10;1.83;;;;;;;15.42;43.07;99176.25;6246196;22;42645;-77
2023/10/17 11:43:36;;;;;;;2.33;1.67;;;;;;;15.43;43.34;99165.47;6246242;22;42413;-76
2023/10/17 11:46:12;;;;;;;2.00;1.57;;;;;;;15.30;43.04;99146.03;6218855;22;39240;-76
2023/10/17 11:48:44;;;;;;;2.57;1.70;;;;;;;15.43;42.91;99176.16;6244667;22;41693;-77
2023/10/17 11:51:15;;;;;;;1.47;1.17;;;;;;;15.46;42.29;99178.56;6244348;22;43036;-76
2023/10/17 11:54:03;;;;;;;3.33;1.73;;;;;;;15.50;42.32;99173.84;6245831;22;42522;-76
2023/10/17 11:56:31;;;;;;;1.90;1.60;;;;;;;15.57;42.75;99174.25;6218942;22;40062;-76
2023/10/17 11:59:01;;;;;;;1.80;1.60;;;;;;;15.63;42.89;99173.78;6219274;22;42046;-76
2023/10/17 12:01:28;;;;;;;2.70;1.40;;;;;;;15.69;42.83;99174.16;6245470;22;43059;-76
2023/10/17 12:03:58;;;;;;;1.67;1.40;;;;;;;15.71;43.00;99166.00;6219627;22;41911;-76
2023/10/17 12:06:27;;;;;;;2.70;1.57;;;;;;;15.90;43.28;99171.59;6218914;22;39101;-76
2023/10/17 12:08:56;;;;;;;3.23;2.00;;;;;;;15.90;41.88;99147.56;6245647;22;42284;-76
2023/10/17 12:11:25;;;;;;;3.30;1.60;;;;;;;16.06;41.62;99161.41;6243573;22;43614;-76
2023/10/17 12:13:53;;;;;;;1.57;1.47;;;;;;;16.14;42.18;99158.09;6246792;22;43154;-76
2023/10/17 12:16:23;;;;;;;3.07;1.70;;;;;;;16.21;42.04;99153.09;6220104;22;39010;-76
2023/10/17 12:18:52;;;;;;;2.17;1.93;;;;;;;16.24;41.68;99147.50;6245045;22;42685;-76
2023/10/17 12:21:20;;;;;;;2.37;1.80;;;;;;;16.37;41.50;99150.91;6244140;22;43631;-76
2023/10/17 12:23:49;;;;;;;2.70;1.57;;;;;;;16.55;40.61;99152.06;6194854;22;41346;-76
2023/10/17 12:26:19;;;;;;;4.10;2.40;;;;;;;16.76;41.07;99150.31;6246865;22;40300;-76
2023/10/17 12:28:46;;;;;;;2.57;1.70;;;;;;;16.78;40.18;99161.75;6244560;22;41494;-80
2023/10/17 12:31:16;;;;;;;2.20;1.67;;;;;;;16.80;39.87;99151.78;6243458;22;43281;-77
2023/10/17 12:33:45;;;;;;;2.67;1.50;;;;;;;16.80;39.93;99135.72;6219652;22;41320;-81
2023/10/17 12:36:13;;;;;;;1.77;1.40;;;;;;;17.16;39.41;99157.69;6222016;22;39142;-80
2023/10/17 12:38:41;;;;;;;2.73;1.57;;;;;;;17.67;38.11;99172.97;6247162;22;41776;-80
2023/10/17 12:41:11;;;;;;;3.40;1.27;;;;;;;18.23;37.54;99163.47;6249524;22;42774;-78
2023/10/17 12:43:39;;;;;;;2.60;1.50;;;;;;;18.52;36.98;99162.69;6247631;22;43221;-80
2023/10/17 12:46:07;;;;;;;1.40;1.30;;;;;;;19.59;37.10;99157.19;6220776;22;41862;-83
2023/10/17 12:48:35;;;;;;;3.93;1.70;;;;;;;20.50;34.86;99173.53;6220920;22;40441;-80
2023/10/17 12:51:11;;;;;;;1.90;1.67;;;;;;;21.73;33.26;99186.13;6220488;22;42999;-76
2023/10/17 12:53:39;;;;;;;1.60;1.50;;;;;;;22.55;30.96;99198.19;6246295;22;42148;-80
2023/10/17 12:56:10;;;;;;;2.30;1.63;;;;;;;23.50;30.30;99195.00;6247818;22;40332;-80
2023/10/17 12:58:40;;;;;;;2.40;1.60;;;;;;;24.91;27.98;99202.34;6221112;22;41130;-79
2023/10/17 13:01:08;;;;;;;2.27;1.60;;;;;;;25.78;26.93;99194.78;6220727;22;42157;-78
2023/10/17 13:03:37;;;;;;;1.87;1.40;;;;;;;26.05;27.11;99191.44;6220537;22;41144;-78
2023/10/17 13:06:05;;;;;;;2.00;1.17;;;;;;;25.52;27.24;99183.47;6246842;22;39876;-76
2023/10/17 13:08:33;;;;;;;1.57;1.30;;;;;;;25.10;26.96;99184.78;6245800;22;41003;-78
2023/10/17 13:11:02;;;;;;;2.63;1.30;;;;;;;24.83;27.39;99188.88;6245354;22;41874;-78
2023/10/17 13:13:30;;;;;;;2.00;1.40;;;;;;;24.86;27.24;99163.25;6221631;22;42894;-81
2023/10/17 13:15:59;;;;;;;1.83;1.50;;;;;;;25.57;26.42;99189.19;6246892;22;40094;-82
2023/10/17 13:18:28;;;;;;;2.87;1.40;;;;;;;26.18;25.97;99185.34;6196276;22;40939;-79
2023/10/17 13:21:02;;;;;;;1.37;1.27;;;;;;;26.70;25.63;99177.09;6221762;22;43046;-82
2023/10/17 13:23:32;;;;;;;3.13;1.43;;;;;;;27.36;25.43;99164.19;6247186;22;42531;-81
2023/10/17 13:25:59;;;;;;;2.00;1.63;;;;;;;27.82;23.92;99189.06;6248391;22;40027;-77
2023/10/17 13:28:27;;;;;;;1.67;1.37;;;;;;;28.15;24.61;99183.88;6247405;22;40971;-80
2023/10/17 13:30:58;;;;;;;1.57;1.43;;;;;;;28.52;23.80;99198.13;6221320;22;42695;-78
2023/10/17 13:33:27;;;;;;;1.83;1.40;;;;;;;28.86;23.47;99189.91;6248431;22;42343;-80
2023/10/17 13:35:57;;;;;;;1.80;1.30;;;;;;;29.04;22.74;99185.75;6248464;22;40250;-81
2023/10/17 13:38:25;;;;;;;1.53;1.43;;;;;;;29.21;22.20;99176.97;6222017;22;41796;-80
2023/10/17 13:41:02;;;;;;;1.93;1.50;;;;;;;29.51;22.39;99172.00;6246160;22;43758;-81
2023/10/17 13:43:29;;;;;;;1.40;1.30;;;;;;;29.85;21.87;99172.81;6245516;22;41277;-84
2023/10/17 13:45:56;;;;;;;1.50;1.40;;;;;;;30.02;21.00;99174.09;6248296;22;40248;-79
2023/10/17 13:48:24;;;;;;;3.27;1.60;;;;;;;30.15;21.02;99179.53;6246547;22;41320;-81
2023/10/17 13:50:53;;;;;;;2.07;1.60;;;;;;;30.10;20.84;99171.13;6246027;22;41775;-80
2023/10/17 13:53:21;;;;;;;2.40;1.50;;;;;;;30.14;20.67;99161.44;6245897;22;43259;-81
2023/10/17 13:55:50;;;;;;;3.67;1.57;;;;;;;30.08;21.12;99145.91;6246998;22;40073;-81
2023/10/17 13:58:17;;;;;;;1.50;1.30;;;;;;;30.33;21.05;99171.47;6221059;22;40318;-81
2023/10/17 14:00:46;;;;;;;2.00;1.43;;;;;;;30.27;20.60;99169.63;6245697;22;43037;-78
2023/10/17 14:03:14;;;;;;;4.33;1.70;;;;;;;30.24;20.89;99156.38;6243282;22;42331;-77
2023/10/17 14:05:44;;;;;;;1.93;1.60;;;;;;;30.01;20.04;99158.75;6244725;22;39801;-80
2023/10/17 14:08:14;;;;;;;2.00;1.67;;;;;;;29.60;20.50;99157.06;6219025;22;41193;-78
2023/10/17 14:10:43;;;;;;;2.67;1.60;;;;;;;28.84;21.16;99091.09;6218526;22;41954;-81
2023/10/17 14:13:12;;;;;;;2.10;1.53;;;;;;;28.69;21.44;99150.38;6248195;22;43464;-88
2023/10/17 14:15:39;;;;;;;2.73;1.53;;;;;;;27.89;21.75;99145.56;6246179;22;40890;-82
2023/10/17 14:22:08;;;;;;;1.77;1.30;;;;;;;24.67;24.43;99078.75;6246571;22;41874;-80
2023/10/17 14:25:00;;;;;;;1.13;1.03;;;;;;;24.24;25.09;99111.81;6247139;22;43026;-82
2023/10/17 14:27:29;;;;;;;2.77;1.53;;;;;;;23.37;25.68;99110.03;6247156;22;40198;-81
2023/10/17 14:29:59;;;;;;;2.50;1.30;;;;;;;22.58;27.04;99103.38;6247294;22;41685;-79
2023/10/17 14:32:28;;;;;;;1.90;1.50;;;;;;;21.90;28.03;99094.53;6248476;22;42437;-79
2023/10/17 14:34:57;;;;;;;1.53;1.30;;;;;;;21.28;28.98;99072.28;6221552;22;41554;-78
2023/10/17 14:37:27;;;;;;;2.37;1.47;;;;;;;20.96;29.47;99087.19;6246539;22;39003;-76
2023/10/17 14:39:56;;;;;;;2.33;1.40;;;;;;;20.23;29.98;99047.97;6221030;22;42170;-78
2023/10/17 14:42:27;;;;;;;1.63;1.30;;;;;;;20.10;30.62;99088.66;6218396;22;41807;-76
2023/10/17 14:44:55;;;;;;;2.83;1.57;;;;;;;19.49;31.36;99040.03;6245422;22;41901;-78
2023/10/17 14:47:22;;;;;;;3.23;1.47;;;;;;;19.44;32.12;99078.03;6219670;22;40204;-81
2023/10/17 14:49:50;;;;;;;2.43;1.50;;;;;;;19.13;32.17;99079.25;6245520;22;40760;-81
2023/10/17 14:52:18;;;;;;;1.67;1.40;;;;;;;18.77;32.89;99068.28;6245570;22;42772;-80
2023/10/17 14:54:45;;;;;;;2.23;1.50;;;;;;;18.54;33.39;99072.22;6246581;22;42641;-79
2023/10/17 14:57:16;;;;;;;2.70;1.73;;;;;;;18.20;33.94;99059.19;6245556;22;40271;-80
2023/10/17 14:59:44;;;;;;;2.57;1.40;;;;;;;17.92;34.10;99063.53;6194402;22;41031;-79
2023/10/17 15:02:14;;;;;;;2.07;1.60;;;;;;;17.70;34.70;99054.81;6220192;22;42022;-80
2023/10/17 15:04:41;;;;;;;2.73;1.73;;;;;;;17.37;35.55;99032.69;6244836;22;42374;-78
2023/10/17 15:07:09;;;;;;;4.77;1.73;;;;;;;17.23;35.84;99030.38;6220410;22;40119;-79
2023/10/17 15:09:36;;;;;;;2.43;1.90;;;;;;;16.98;35.87;99041.50;6219280;22;40884;-78
2023/10/17 15:12:04;;;;;;;4.23;1.70;;;;;;;16.76;36.54;99031.78;6220434;22;41743;-78
2023/10/17 15:14:34;;;;;;;2.00;1.47;;;;;;;16.54;36.64;99022.03;6245801;22;41539;-79
2023/10/17 15:17:01;;;;;;;2.23;1.60;;;;;;;16.35;37.45;99027.22;6246656;22;40086;-82
2023/10/17 15:19:28;;;;;;;3.83;1.63;;;;;;;16.15;37.99;99016.38;6247008;22;41877;-85
2023/10/17 15:21:56;;;;;;;2.47;1.50;;;;;;;15.94;38.71;99006.59;6222371;22;41443;-84
2023/10/17 15:24:25;;;;;;;2.13;1.93;;;;;;;15.72;39.08;99002.16;6247359;22;42535;-81
2023/10/17 15:26:53;;;;;;;1.87;1.57;;;;;;;15.50;38.78;99000.34;6221881;22;39054;-86
2023/10/17 15:29:20;;;;;;;1.60;1.13;;;;;;;15.44;39.07;99009.69;6220932;22;40613;-78
2023/10/17 15:31:53;;;;;;;3.80;1.80;;;;;;;15.32;39.11;99005.34;6220245;22;42182;-83
2023/10/17 15:34:21;;;;;;;3.10;1.90;;;;;;;15.19;39.92;99004.63;6220511;22;41703;-75
2023/10/17 15:36:49;;;;;;;2.50;1.70;;;;;;;15.04;40.44;98990.66;6242979;22;40109;-76
2023/10/17 15:39:18;;;;;;;2.67;1.73;;;;;;;14.80;41.03;98981.06;6245051;22;41717;-76
2023/10/17 15:41:45;;;;;;;1.53;1.43;;;;;;;14.76;40.92;98999.09;6244742;22;41680;-75
2023/10/17 15:44:13;;;;;;;3.50;1.50;;;;;;;14.64;40.78;99003.56;6246506;22;42695;-75
2023/10/17 15:46:40;;;;;;;1.63;1.50;;;;;;;14.49;41.52;98988.75;6245072;22;38910;-75